Time;durP1;ratioP1;P1;durP2;ratioP2;P2;SDS_P1;SDS_P2;PMS_P1;PMS_P2;Temp;Humidity;BMP_temperature;BMP_pressure;BME280_temperature;BME280_humidity;BME280_pressure;Samples;Min_cycle;Max_cycle;Signal;HPM_P1;HPM_P2
2021/01/11 00:00:25;;;;;;;6.10;4.28;;;24.80;94.80;;;;;;5089251;28;20112;-91
2021/01/11 00:02:58;;;;;;;6.60;3.33;;;24.80;94.50;;;;;;5089033;28;20032;-93
2021/01/11 00:08:36;;;;;;;5.18;3.80;;;25.00;94.40;;;;;;5018753;28;20024;-93
2021/01/11 00:11:34;;;;;;;6.07;3.85;;;25.10;94.20;;;;;;5074053;28;20056;-91
2021/01/11 00:14:40;;;;;;;6.03;4.40;;;25.10;94.20;;;;;;5034076;28;20025;-93
2021/01/11 00:17:41;;;;;;;;;;;;;;;;;;;;;
2021/01/11 00:20:43;;;;;;;6.88;4.07;;;25.10;94.80;;;;;;5077240;28;20060;-92
2021/01/11 00:26:25;;;;;;;6.95;5.70;;;25.20;94.90;;;;;;5088686;28;20063;-90
2021/01/11 00:32:37;;;;;;;7.10;6.13;;;25.10;95.20;;;;;;5075659;28;20190;-91
2021/01/11 00:35:51;;;;;;;9.20;7.15;;;25.20;95.10;;;;;;5033426;28;20024;-89
2021/01/11 00:38:20;;;;;;;13.60;9.75;;;25.20;95.00;;;;;;5030845;28;20036;-90
2021/01/11 00:40:50;;;;;;;13.38;9.43;;;25.20;94.80;;;;;;5063088;28;20039;-92
2021/01/11 00:44:23;;;;;;;;;;;;;;;;;;;;;
2021/01/11 00:50:07;;;;;;;17.48;10.20;;;25.00;95.10;;;;;;4972574;28;20042;-89
2021/01/11 00:53:11;;;;;;;17.23;11.50;;;24.90;95.20;;;;;;5071866;28;20032;-90
2021/01/11 00:56:02;;;;;;;17.77;10.80;;;25.00;95.30;;;;;;5070654;28;20029;-95
2021/01/11 00:58:31;;;;;;;13.27;6.88;;;25.10;95.60;;;;;;5056794;28;20043;-93
2021/01/11 01:00:58;;;;;;;8.40;4.85;;;25.00;95.30;;;;;;5070831;28;20021;-93
2021/01/11 01:03:54;;;;;;;6.15;4.10;;;24.90;95.60;;;;;;5046855;28;20101;-93
2021/01/11 01:06:21;;;;;;;4.10;3.17;;;24.90;95.30;;;;;;5030254;28;20234;-92
2021/01/11 01:08:58;;;;;;;4.22;3.30;;;25.00;95.60;;;;;;5046943;28;20056;-93
2021/01/11 01:11:29;;;;;;;3.97;3.05;;;24.90;95.70;;;;;;5043994;28;20044;-94
2021/01/11 01:13:57;;;;;;;2.85;2.13;;;24.90;96.20;;;;;;5045072;28;20096;-94
2021/01/11 01:16:44;;;;;;;2.47;1.95;;;24.80;95.90;;;;;;5028424;28;20030;-94
2021/01/11 01:19:24;;;;;;;4.20;2.10;;;24.80;96.00;;;;;;5044465;28;20040;-94
2021/01/11 01:22:06;;;;;;;3.80;2.05;;;24.80;95.80;;;;;;5045447;28;20091;-93
2021/01/11 01:24:58;;;;;;;3.30;2.17;;;24.90;95.80;;;;;;5044101;28;20030;-93
2021/01/11 01:27:51;;;;;;;2.50;1.92;;;24.90;95.80;;;;;;5032617;28;20037;-91
2021/01/11 01:30:23;;;;;;;3.72;2.17;;;25.00;96.00;;;;;;5043562;28;20025;-90
2021/01/11 01:36:16;;;;;;;5.70;3.13;;;24.90;96.00;;;;;;5010878;28;20029;-90
2021/01/11 01:38:43;;;;;;;5.30;2.67;;;25.00;95.70;;;;;;5007798;28;20118;-90
2021/01/11 01:41:36;;;;;;;3.03;1.95;;;25.00;95.60;;;;;;5027412;28;20108;-89
2021/01/11 01:44:03;;;;;;;2.78;1.90;;;25.00;95.60;;;;;;5045623;28;20051;-89
2021/01/11 01:46:34;;;;;;;2.95;1.98;;;25.00;95.50;;;;;;5052050;28;20047;-90
2021/01/11 01:49:07;;;;;;;5.35;1.88;;;25.00;95.40;;;;;;5028874;28;20136;-89
2021/01/11 01:51:37;;;;;;;2.92;1.80;;;24.90;95.50;;;;;;5029034;28;20022;-89
2021/01/11 01:54:32;;;;;;;2.63;1.60;;;24.90;95.50;;;;;;5044803;28;20029;-91
2021/01/11 01:57:39;;;;;;;5.90;1.77;;;24.90;95.40;;;;;;5027844;28;20112;-89
2021/01/11 02:00:23;;;;;;;;;;;;;;;;;;;;;
2021/01/11 02:03:00;;;;;;;4.03;1.42;;;24.80;95.40;;;;;;5008207;28;20068;-90
2021/01/11 02:05:36;;;;;;;2.50;1.90;;;24.80;95.40;;;;;;5028113;28;20033;-89
2021/01/11 02:08:25;;;;;;;2.65;1.50;;;24.80;95.40;;;;;;5044863;28;20033;-90
2021/01/11 02:11:13;;;;;;;4.60;1.60;;;24.70;95.10;;;;;;5040357;28;20054;-90
2021/01/11 02:13:49;;;;;;;3.05;1.60;;;24.70;95.20;;;;;;5009042;28;20041;-89
2021/01/11 02:16:54;;;;;;;4.65;1.38;;;24.60;95.00;;;;;;5023932;28;20036;-88
2021/01/11 02:19:40;;;;;;;5.07;1.70;;;24.60;94.80;;;;;;4990934;28;20031;-86
2021/01/11 02:22:27;;;;;;;2.78;1.65;;;24.60;94.50;;;;;;5026194;28;20030;-89
2021/01/11 02:25:26;;;;;;;4.43;1.73;;;24.60;94.30;;;;;;5026110;28;20030;-90
2021/01/11 02:27:58;;;;;;;3.88;1.50;;;24.50;94.20;;;;;;5025588;28;20333;-88
2021/01/11 02:30:33;;;;;;;2.55;1.60;;;24.50;94.20;;;;;;5048313;28;20032;-87
2021/01/11 02:33:21;;;;;;;2.80;1.85;;;24.50;94.10;;;;;;5066396;28;20025;-89
2021/01/11 02:36:15;;;;;;;3.65;1.40;;;24.40;93.70;;;;;;5047856;28;20074;-89
2021/01/11 02:38:42;;;;;;;6.10;2.03;;;24.30;93.60;;;;;;5002949;28;20040;-88
2021/01/11 02:41:10;;;;;;;5.15;3.22;;;24.30;93.90;;;;;;5048456;28;20033;-89
2021/01/11 02:43:36;;;;;;;5.65;3.60;;;24.30;94.00;;;;;;5066499;28;20052;-88
2021/01/11 02:46:05;;;;;;;8.57;3.97;;;24.30;93.60;;;;;;5065443;28;20039;-88
2021/01/11 02:49:21;;;;;;;3.58;2.05;;;24.20;93.90;;;;;;5065953;28;20036;-90
2021/01/11 02:52:23;;;;;;;10.70;4.25;;;24.30;93.40;;;;;;4954976;28;20042;-89
2021/01/11 02:55:01;;;;;;;4.50;2.63;;;24.20;93.70;;;;;;5050239;28;20052;-90
2021/01/11 02:57:46;;;;;;;2.83;1.77;;;24.20;93.60;;;;;;5022014;28;20318;-90
2021/01/11 03:00:37;;;;;;;2.83;1.60;;;24.20;93.60;;;;;;5035466;28;20045;-91
2021/01/11 03:07:00;;;;;;;1.85;1.17;;;24.30;93.50;;;;;;4954646;28;20144;-90
2021/01/11 03:09:34;;;;;;;2.35;1.42;;;24.20;93.30;;;;;;5005001;28;20042;-90
2021/01/11 03:15:47;;;;;;;1.83;1.20;;;24.20;93.20;;;;;;5024791;28;20133;-89
2021/01/11 03:19:19;;;;;;;;;;;;;;;;;;;;;
2021/01/11 03:21:49;;;;;;;2.55;1.30;;;24.20;93.40;;;;;;5025702;28;20054;-89
2021/01/11 03:24:21;;;;;;;2.72;1.23;;;24.30;93.10;;;;;;5008567;28;20400;-91
2021/01/11 03:26:52;;;;;;;1.92;1.38;;;24.30;92.90;;;;;;5027608;28;20274;-90
2021/01/11 03:29:37;;;;;;;2.30;1.40;;;24.30;93.40;;;;;;5043860;28;20041;-89
2021/01/11 03:32:05;;;;;;;2.38;1.30;;;24.30;92.60;;;;;;5045472;28;20057;-90
2021/01/11 03:34:49;;;;;;;2.38;1.30;;;24.40;92.60;;;;;;5045020;28;20045;-90
2021/01/11 03:37:21;;;;;;;15.60;2.33;;;24.40;93.00;;;;;;5044798;28;20021;-89
2021/01/11 03:39:47;;;;;;;;;;;24.20;92.80;;;;;;5045651;28;20300;-90
2021/01/11 03:42:25;;;;;;;1.35;1.05;;;24.20;92.40;;;;;;5029366;28;19996;-91
2021/01/11 03:45:51;;;;;;;3.08;1.60;;;24.30;92.60;;;;;;5051779;28;20228;-90
2021/01/11 03:49:00;;;;;;;;;;;;;;;;;;;;;
2021/01/11 03:52:08;;;;;;;1.92;1.38;;;24.30;92.60;;;;;;5048970;28;20053;-91
2021/01/11 03:54:40;;;;;;;2.45;1.40;;;24.30;92.90;;;;;;5089025;28;20107;-90
2021/01/11 03:57:09;;;;;;;2.80;1.02;;;24.40;92.70;;;;;;5053987;28;20340;-89
2021/01/11 03:59:37;;;;;;;2.53;0.80;;;24.40;92.50;;;;;;5052570;28;20048;-91
2021/01/11 04:02:26;;;;;;;2.75;0.93;;;24.30;92.40;;;;;;5068479;28;20047;-90
2021/01/11 04:05:10;;;;;;;6.40;1.20;;;24.30;92.40;;;;;;5087732;28;20035;-89
2021/01/11 04:07:39;;;;;;;1.80;0.98;;;24.20;92.70;;;;;;5070397;28;20029;-91
2021/01/11 04:10:08;;;;;;;1.10;1.00;;;24.20;92.90;;;;;;5072432;28;20032;-91
2021/01/11 04:12:39;;;;;;;2.17;1.00;;;24.20;92.90;;;;;;5070122;28;20084;-91
2021/01/11 04:15:09;;;;;;;2.53;1.05;;;24.20;92.90;;;;;;5070339;28;20039;-91
2021/01/11 04:17:36;;;;;;;2.13;1.00;;;24.20;93.00;;;;;;5069914;28;20051;-88
2021/01/11 04:20:06;;;;;;;2.88;1.38;;;24.20;93.00;;;;;;5071646;28;20032;-90
2021/01/11 04:22:33;;;;;;;3.55;1.17;;;24.20;93.20;;;;;;5088783;28;20039;-89
2021/01/11 04:25:00;;;;;;;1.73;1.10;;;24.20;93.30;;;;;;5088848;28;20316;-90
2021/01/11 04:27:29;;;;;;;1.38;0.90;;;24.20;93.20;;;;;;5090181;28;20032;-90
2021/01/11 04:29:56;;;;;;;2.05;0.90;;;24.10;93.10;;;;;;5089444;28;20043;-91
2021/01/11 04:32:34;;;;;;;3.75;1.23;;;24.10;93.20;;;;;;5088552;28;20035;-90
2021/01/11 04:35:08;;;;;;;2.92;1.10;;;24.10;93.30;;;;;;5088244;28;20032;-89
2021/01/11 04:37:38;;;;;;;2.90;2.03;;;24.20;93.20;;;;;;5087157;28;20103;-90
2021/01/11 04:40:06;;;;;;;2.22;1.38;;;24.10;93.00;;;;;;5087794;28;20035;-91
2021/01/11 04:42:48;;;;;;;3.60;1.30;;;24.20;92.90;;;;;;5107206;28;20031;-89
2021/01/11 04:45:16;;;;;;;1.67;1.10;;;24.20;92.80;;;;;;5088073;28;20421;-90
2021/01/11 04:47:44;;;;;;;1.25;0.93;;;24.20;92.80;;;;;;5090714;28;20032;-90
2021/01/11 04:50:12;;;;;;;2.22;0.90;;;24.20;92.50;;;;;;5107649;28;20047;-91
2021/01/11 04:52:39;;;;;;;1.38;0.80;;;24.20;92.30;;;;;;5090730;28;20024;-89
2021/01/11 04:55:08;;;;;;;1.15;0.70;;;24.20;92.00;;;;;;5088287;28;20081;-88
2021/01/11 04:57:39;;;;;;;2.10;0.65;;;24.30;91.80;;;;;;5087855;28;20334;-89
2021/01/11 05:00:08;;;;;;;0.88;0.80;;;24.30;91.40;;;;;;5087472;28;20043;-89
2021/01/11 05:02:44;;;;;;;1.98;0.68;;;24.30;91.70;;;;;;5086978;28;20036;-89
2021/01/11 05:05:16;;;;;;;1.70;0.40;;;24.20;91.40;;;;;;5086586;28;20036;-89
2021/01/11 05:07:42;;;;;;;;;;;24.20;91.60;;;;;;5086979;28;20089;-89
2021/01/11 05:11:01;;;;;;;3.08;0.85;;;24.20;91.50;;;;;;5090126;28;20164;-91
2021/01/11 05:13:28;;;;;;;0.95;0.52;;;24.30;91.40;;;;;;5011490;28;20037;-91
2021/01/11 05:16:23;;;;;;;1.23;0.50;;;24.30;91.20;;;;;;5031846;28;20036;-89
2021/01/11 05:19:00;;;;;;;1.83;0.73;;;24.30;91.10;;;;;;5087896;28;20032;-89
2021/01/11 05:22:30;;;;;;;0.68;0.43;;;24.30;91.00;;;;;;5089696;28;20062;-90
2021/01/11 05:24:57;;;;;;;1.45;0.35;;;24.30;91.00;;;;;;5064728;28;20036;-90
2021/01/11 05:27:47;;;;;;;1.85;0.50;;;24.30;91.20;;;;;;5085117;28;20035;-90
2021/01/11 05:30:24;;;;;;;1.48;0.50;;;24.30;91.30;;;;;;5111837;28;20020;-89
2021/01/11 05:32:51;;;;;;;1.35;0.50;;;24.30;91.10;;;;;;5109094;28;20024;-89
2021/01/11 05:35:27;;;;;;;1.30;0.50;;;24.30;91.30;;;;;;5091831;28;20099;-90
2021/01/11 05:38:02;;;;;;;0.88;0.60;;;24.30;91.00;;;;;;5108348;28;20087;-90
2021/01/11 05:40:30;;;;;;;1.45;0.60;;;24.30;91.10;;;;;;5108553;28;20028;-89
2021/01/11 05:43:02;;;;;;;0.60;0.40;;;24.30;91.30;;;;;;5090464;28;20034;-90
2021/01/11 05:45:33;;;;;;;1.13;0.50;;;24.40;91.30;;;;;;5089762;28;20032;-90
2021/01/11 05:48:11;;;;;;;1.00;0.50;;;24.30;91.00;;;;;;5089875;28;20043;-89
2021/01/11 05:50:38;;;;;;;1.70;0.70;;;24.40;91.10;;;;;;5089877;28;20039;-87
2021/01/11 05:53:23;;;;;;;1.20;0.40;;;24.30;91.30;;;;;;5090565;28;20066;-90
2021/01/11 05:55:51;;;;;;;0.47;0.47;;;24.30;91.30;;;;;;5089929;28;20303;-90
2021/01/11 05:58:23;;;;;;;0.90;0.43;;;24.30;91.30;;;;;;5092292;28;20028;-89
2021/01/11 06:00:50;;;;;;;1.25;0.50;;;24.30;91.20;;;;;;5091928;28;20036;-90
2021/01/11 06:03:19;;;;;;;2.42;0.50;;;24.30;91.40;;;;;;5090851;28;20028;-91
2021/01/11 06:05:46;;;;;;;1.48;0.88;;;24.30;91.60;;;;;;5107962;28;20032;-91
2021/01/11 06:08:16;;;;;;;2.40;0.50;;;24.20;91.50;;;;;;5090406;28;20039;-88
2021/01/11 06:10:46;;;;;;;2.08;0.40;;;24.20;91.90;;;;;;5089359;28;20040;-89
2021/01/11 06:13:13;;;;;;;1.27;0.52;;;24.10;91.80;;;;;;5108911;28;20079;-89
2021/01/11 06:15:42;;;;;;;1.85;0.60;;;24.10;91.80;;;;;;5090397;28;20055;-91
2021/01/11 06:18:11;;;;;;;2.58;0.60;;;24.20;91.80;;;;;;5091650;28;20096;-89
2021/01/11 06:20:46;;;;;;;1.02;0.50;;;24.20;91.60;;;;;;5092268;28;20077;-90
2021/01/11 06:23:26;;;;;;;0.75;0.50;;;24.20;91.60;;;;;;5109571;28;20235;-88
2021/01/11 06:25:59;;;;;;;4.22;0.70;;;24.30;91.70;;;;;;5072558;28;20036;-91
2021/01/11 06:28:35;;;;;;;1.88;0.65;;;24.20;91.50;;;;;;5090024;28;20028;-90
2021/01/11 06:31:13;;;;;;;0.60;0.50;;;24.30;91.50;;;;;;5090854;28;20154;-89
2021/01/11 06:33:42;;;;;;;0.98;0.50;;;24.20;91.40;;;;;;5090572;28;20046;-90
2021/01/11 06:36:24;;;;;;;0.57;0.38;;;24.30;91.50;;;;;;5090251;28;20034;-90
2021/01/11 06:38:52;;;;;;;0.47;0.40;;;24.30;91.30;;;;;;5090175;28;20035;-88
2021/01/11 06:41:22;;;;;;;1.67;0.80;;;24.30;91.20;;;;;;5089972;28;20040;-90
2021/01/11 06:43:49;;;;;;;0.55;0.50;;;24.30;91.20;;;;;;5073970;28;20028;-90
2021/01/11 06:46:28;;;;;;;1.85;0.65;;;24.30;91.00;;;;;;5088919;28;20086;-91
2021/01/11 06:49:03;;;;;;;1.48;0.60;;;24.30;91.30;;;;;;5089661;28;20264;-91
2021/01/11 06:51:33;;;;;;;0.70;0.52;;;24.40;91.60;;;;;;5089775;28;20107;-92
2021/01/11 06:54:18;;;;;;;3.15;0.77;;;24.30;91.60;;;;;;5091390;28;20385;-91
2021/01/11 06:56:45;;;;;;;0.93;0.60;;;24.30;91.50;;;;;;5091544;28;20039;-92
2021/01/11 06:59:19;;;;;;;1.20;0.47;;;24.40;91.60;;;;;;5090768;28;20030;-93
2021/01/11 07:01:47;;;;;;;0.93;0.60;;;24.30;91.60;;;;;;5091220;28;20040;-92
2021/01/11 07:04:36;;;;;;;4.68;0.65;;;24.30;91.40;;;;;;5091662;28;20047;-92
2021/01/11 07:07:03;;;;;;;1.15;0.63;;;24.30;91.40;;;;;;5108766;28;20031;-92
2021/01/11 07:09:30;;;;;;;2.78;0.73;;;24.30;91.70;;;;;;5090116;28;20060;-92
2021/01/11 07:12:05;;;;;;;2.53;0.40;;;24.30;91.40;;;;;;5090555;28;20291;-94
2021/01/11 07:14:56;;;;;;;3.85;0.90;;;24.30;91.50;;;;;;5090741;28;20086;-92
2021/01/11 07:17:52;;;;;;;4.55;0.52;;;24.20;91.20;;;;;;5090475;28;20062;-92
2021/01/11 07:20:39;;;;;;;2.08;0.50;;;24.20;91.10;;;;;;5073777;28;20035;-90
2021/01/11 07:23:15;;;;;;;2.45;0.65;;;24.30;91.20;;;;;;5089792;28;20023;-91
2021/01/11 07:25:48;;;;;;;2.15;0.70;;;24.30;91.10;;;;;;5090141;28;20032;-91
2021/01/11 07:28:17;;;;;;;2.00;0.70;;;24.30;91.00;;;;;;5090970;28;20055;-91
2021/01/11 07:30:50;;;;;;;1.20;0.50;;;24.40;91.20;;;;;;5090699;28;20035;-91
2021/01/11 07:33:16;;;;;;;1.73;0.57;;;24.40;91.20;;;;;;5089805;28;20024;-91
2021/01/11 07:35:43;;;;;;;3.08;0.60;;;24.30;91.30;;;;;;5092077;28;20111;-92
2021/01/11 07:38:20;;;;;;;1.80;0.55;;;24.30;91.00;;;;;;5091082;28;20031;-92
2021/01/11 07:40:56;;;;;;;1.23;0.47;;;24.30;91.10;;;;;;5089632;28;20043;-91
2021/01/11 07:43:26;;;;;;;1.25;0.65;;;24.30;90.70;;;;;;5090555;28;20034;-90
2021/01/11 07:46:11;;;;;;;0.93;0.70;;;24.30;90.60;;;;;;5091492;28;20059;-92
2021/01/11 07:48:39;;;;;;;2.78;0.63;;;24.30;90.70;;;;;;5090811;28;20052;-89
2021/01/11 07:51:10;;;;;;;4.85;0.73;;;24.40;90.60;;;;;;5092100;28;20035;-91
2021/01/11 07:53:41;;;;;;;3.50;0.50;;;24.40;90.60;;;;;;5089294;28;20027;-91
2021/01/11 07:56:09;;;;;;;1.35;0.50;;;24.40;90.60;;;;;;5090423;28;20066;-92
2021/01/11 07:58:37;;;;;;;3.70;0.80;;;24.30;90.40;;;;;;5090568;28;20032;-91
2021/01/11 08:01:10;;;;;;;1.10;0.50;;;24.30;90.50;;;;;;5089483;28;20031;-91
2021/01/11 08:03:37;;;;;;;3.00;0.50;;;24.30;90.50;;;;;;5090003;28;20332;-91
2021/01/11 08:06:04;;;;;;;4.53;0.60;;;24.30;90.40;;;;;;5090259;28;20039;-91
2021/01/11 08:08:33;;;;;;;2.28;0.60;;;24.40;90.60;;;;;;5089661;28;20024;-91
2021/01/11 08:11:09;;;;;;;2.15;0.77;;;24.40;90.80;;;;;;5091468;28;20028;-91
2021/01/11 08:13:35;;;;;;;2.75;0.70;;;24.30;90.80;;;;;;5092432;28;20024;-91
2021/01/11 08:16:12;;;;;;;1.90;0.50;;;24.30;90.40;;;;;;5091259;28;20028;-92
2021/01/11 08:18:39;;;;;;;1.02;0.50;;;24.30;90.30;;;;;;5089717;28;20028;-90
2021/01/11 08:21:08;;;;;;;2.45;0.60;;;24.40;90.60;;;;;;5089427;28;20103;-92
2021/01/11 08:23:35;;;;;;;1.65;0.43;;;24.40;90.30;;;;;;5089414;28;20024;-92
2021/01/11 08:26:06;;;;;;;0.98;0.65;;;24.40;90.40;;;;;;5088750;28;20036;-91
2021/01/11 08:28:33;;;;;;;3.58;0.73;;;24.40;90.30;;;;;;5089707;28;20107;-91
2021/01/11 08:31:04;;;;;;;2.70;0.52;;;24.40;90.40;;;;;;5088264;28;20028;-89
2021/01/11 08:33:32;;;;;;;0.80;0.40;;;24.40;90.50;;;;;;5106336;28;20027;-92
2021/01/11 08:36:22;;;;;;;1.58;1.23;;;24.40;90.40;;;;;;5105840;28;20024;-90
2021/01/11 08:39:11;;;;;;;2.28;0.60;;;24.40;90.40;;;;;;5088082;28;20048;-91
2021/01/11 08:41:40;;;;;;;1.00;0.50;;;24.40;90.30;;;;;;5088752;28;20243;-90
2021/01/11 08:44:22;;;;;;;2.50;0.60;;;24.40;90.10;;;;;;5091872;28;20024;-91
2021/01/11 08:47:14;;;;;;;3.00;0.65;;;24.40;90.40;;;;;;5092589;28;20312;-91
2021/01/11 08:49:57;;;;;;;1.38;0.60;;;24.40;90.20;;;;;;5088098;28;20359;-91
2021/01/11 08:52:30;;;;;;;2.70;0.60;;;24.40;90.50;;;;;;5071814;28;20029;-91
2021/01/11 08:55:07;;;;;;;3.03;0.63;;;24.40;90.40;;;;;;5071652;28;20051;-92
2021/01/11 08:57:34;;;;;;;2.47;0.52;;;24.40;90.30;;;;;;5071822;28;20032;-91
2021/01/11 09:00:07;;;;;;;2.28;0.70;;;24.30;90.40;;;;;;5072256;28;20387;-90
2021/01/11 09:02:34;;;;;;;0.52;0.50;;;24.40;90.70;;;;;;5072636;28;20229;-92
2021/01/11 09:05:23;;;;;;;1.75;0.50;;;24.40;90.50;;;;;;5072286;28;20075;-90
2021/01/11 09:07:51;;;;;;;2.63;0.95;;;24.40;90.10;;;;;;5071436;28;20037;-91
2021/01/11 09:10:32;;;;;;;2.60;0.68;;;24.40;90.40;;;;;;5071848;28;20229;-92
2021/01/11 09:13:20;;;;;;;4.00;0.70;;;24.50;90.50;;;;;;5071758;28;20099;-91
2021/01/11 09:15:47;;;;;;;1.27;0.75;;;24.40;90.60;;;;;;5070516;28;20194;-91
2021/01/11 09:18:15;;;;;;;0.93;0.50;;;24.40;90.60;;;;;;5071920;28;20028;-91
2021/01/11 09:20:44;;;;;;;2.75;0.73;;;24.40;90.50;;;;;;5071744;28;20032;-92
2021/01/11 09:23:11;;;;;;;0.90;0.50;;;24.40;90.60;;;;;;5072611;28;20082;-92
2021/01/11 09:25:39;;;;;;;1.65;0.65;;;24.40;90.90;;;;;;5073133;28;20272;-92
2021/01/11 09:28:07;;;;;;;1.95;0.80;;;24.30;90.70;;;;;;5071976;28;20054;-91
2021/01/11 09:30:34;;;;;;;0.63;0.50;;;24.30;91.00;;;;;;5072249;28;20036;-91
2021/01/11 09:33:02;;;;;;;2.28;0.70;;;24.30;91.00;;;;;;5072378;28;20024;-92
2021/01/11 09:35:29;;;;;;;1.42;0.50;;;24.30;90.90;;;;;;5073272;28;20221;-91
2021/01/11 09:37:56;;;;;;;1.92;0.73;;;24.30;90.90;;;;;;5072092;28;20228;-91
2021/01/11 09:40:24;;;;;;;2.55;0.57;;;24.30;90.90;;;;;;5071355;28;20029;-91
2021/01/11 09:42:53;;;;;;;0.68;0.52;;;24.30;91.00;;;;;;5072061;28;20024;-91
2021/01/11 09:45:20;;;;;;;3.72;0.60;;;24.30;91.00;;;;;;5070134;28;20245;-92
2021/01/11 09:47:47;;;;;;;2.35;0.57;;;24.30;91.00;;;;;;5070456;28;20036;-92
2021/01/11 09:50:15;;;;;;;2.72;0.90;;;24.30;91.00;;;;;;5090279;28;20188;-91
2021/01/11 09:52:42;;;;;;;1.88;0.75;;;24.30;91.10;;;;;;5091107;28;20081;-91
2021/01/11 09:55:11;;;;;;;2.47;0.57;;;24.30;90.80;;;;;;5090575;28;20028;-91
2021/01/11 09:57:38;;;;;;;1.15;0.80;;;24.30;90.70;;;;;;5090913;28;20058;-90
2021/01/11 10:00:14;;;;;;;1.88;0.70;;;24.30;90.90;;;;;;5090482;28;20063;-91
2021/01/11 10:02:50;;;;;;;3.28;0.70;;;24.30;90.60;;;;;;5090624;28;20043;-90
2021/01/11 10:05:17;;;;;;;1.05;0.45;;;24.30;90.40;;;;;;5091733;28;20032;-91
2021/01/11 10:07:47;;;;;;;0.93;0.50;;;24.40;90.40;;;;;;5091048;28;20035;-91
2021/01/11 10:10:14;;;;;;;2.60;1.00;;;24.40;90.40;;;;;;5093544;28;20055;-92
2021/01/11 10:12:42;;;;;;;1.95;0.93;;;24.40;91.00;;;;;;5091438;28;20032;-91
2021/01/11 10:15:09;;;;;;;3.80;0.95;;;24.40;90.70;;;;;;5092225;28;20020;-93
2021/01/11 10:17:38;;;;;;;1.63;0.80;;;24.40;91.10;;;;;;5092554;28;20032;-91
2021/01/11 10:20:10;;;;;;;3.03;1.08;;;24.40;91.10;;;;;;5108319;28;20036;-94
2021/01/11 10:22:38;;;;;;;9.05;2.47;;;24.40;91.20;;;;;;5091547;28;20123;-93
2021/01/11 10:25:12;;;;;;;2.45;0.80;;;24.40;91.40;;;;;;5092086;28;20082;-93
2021/01/11 10:27:41;;;;;;;5.25;1.83;;;24.40;90.90;;;;;;5075883;28;20063;-94
2021/01/11 10:30:11;;;;;;;3.15;1.63;;;24.40;90.80;;;;;;5091523;28;20232;-95
2021/01/11 10:32:40;;;;;;;2.63;1.25;;;24.40;90.90;;;;;;5093383;28;20028;-94
2021/01/11 10:35:07;;;;;;;0.88;0.80;;;24.50;90.90;;;;;;5093043;28;20066;-93
2021/01/11 10:37:37;;;;;;;3.80;0.70;;;24.50;90.60;;;;;;5109805;28;20028;-94
2021/01/11 10:40:06;;;;;;;1.83;0.77;;;24.40;90.70;;;;;;5109551;28;20032;-92
2021/01/11 10:42:33;;;;;;;3.97;1.70;;;24.40;90.80;;;;;;5091250;28;20071;-92
2021/01/11 10:45:00;;;;;;;11.10;2.30;;;24.50;90.90;;;;;;5089746;28;20055;-91
2021/01/11 10:47:26;;;;;;;2.40;0.95;;;24.50;91.00;;;;;;5087915;28;20039;-91
2021/01/11 10:49:53;;;;;;;3.00;1.40;;;24.40;90.90;;;;;;5088861;28;20047;-92
2021/01/11 10:52:49;;;;;;;5.28;1.20;;;24.40;91.70;;;;;;5089207;28;20027;-96
2021/01/11 10:55:40;;;;;;;;;;;;;;;;;;;;;
2021/01/11 10:58:42;;;;;;;6.75;1.77;;;24.40;92.50;;;;;;5107721;28;20051;-96
2021/01/11 11:03:49;;;;;;;3.92;1.20;;;24.30;93.60;;;;;;5539369;22;20045;-94
2021/01/11 11:06:21;;;;;;;22.80;2.35;;;24.20;93.80;;;;;;5070172;28;20033;-94
2021/01/11 11:08:48;;;;;;;28.17;4.15;;;24.10;93.90;;;;;;5068706;28;20531;-93
2021/01/11 11:11:15;;;;;;;13.77;2.10;;;24.20;93.70;;;;;;5087588;28;20029;-94
2021/01/11 11:13:45;;;;;;;9.75;1.88;;;24.20;93.50;;;;;;5070697;28;20111;-96
2021/01/11 11:16:14;;;;;;;9.43;2.45;;;24.10;93.60;;;;;;5088951;28;20044;-96
2021/01/11 11:21:18;;;;;;;8.73;2.58;;;24.10;93.80;;;;;;5451204;22;20328;-95
2021/01/11 11:24:29;;;;;;;3.65;1.88;;;24.10;94.00;;;;;;5112239;28;20036;-95
2021/01/11 11:30:49;;;;;;;6.07;1.35;;;23.90;94.40;;;;;;5029063;28;20241;-96
2021/01/11 11:33:15;;;;;;;;;;;23.90;94.20;;;;;;5024938;28;20038;-93
2021/01/11 11:35:42;;;;;;;3.08;1.67;;;23.90;94.00;;;;;;5079244;28;19903;-93
2021/01/11 11:38:19;;;;;;;2.00;0.90;;;23.90;94.30;;;;;;5100539;28;20035;-93
2021/01/11 11:40:46;;;;;;;4.97;1.40;;;23.90;94.40;;;;;;5109621;28;20032;-93
2021/01/11 11:43:16;;;;;;;2.33;1.17;;;23.90;94.30;;;;;;5108795;28;20032;-94
2021/01/11 11:45:43;;;;;;;2.88;1.35;;;23.80;94.10;;;;;;5111289;28;20035;-94
2021/01/11 11:48:13;;;;;;;2.92;1.23;;;23.80;94.70;;;;;;5103456;28;20032;-94
2021/01/11 11:50:41;;;;;;;2.70;1.30;;;23.80;94.70;;;;;;5097574;28;20073;-94
2021/01/11 11:53:08;;;;;;;3.67;1.48;;;23.60;95.20;;;;;;5095658;28;20031;-92
2021/01/11 11:55:35;;;;;;;8.80;2.38;;;23.60;95.50;;;;;;5105879;28;20034;-93
2021/01/11 11:58:09;;;;;;;7.65;2.47;;;23.60;96.00;;;;;;5107297;28;20032;-92
2021/01/11 12:00:35;;;;;;;7.10;2.50;;;23.70;95.70;;;;;;5107175;28;20029;-92
2021/01/11 12:03:02;;;;;;;5.13;1.70;;;23.80;96.10;;;;;;5107471;28;20031;-92
2021/01/11 12:05:29;;;;;;;5.40;1.70;;;23.70;95.70;;;;;;5107753;28;20027;-92
2021/01/11 12:07:55;;;;;;;5.68;1.60;;;23.80;95.50;;;;;;5107404;28;20110;-93
2021/01/11 12:10:22;;;;;;;6.20;2.28;;;23.80;95.20;;;;;;5107514;28;20223;-93
2021/01/11 12:12:49;;;;;;;8.20;3.50;;;23.80;95.80;;;;;;5108060;28;20031;-94
2021/01/11 12:15:16;;;;;;;22.02;4.03;;;23.80;95.90;;;;;;5108747;28;20038;-93
2021/01/11 12:17:51;;;;;;;21.42;9.02;;;23.80;95.70;;;;;;5106652;28;20027;-92
2021/01/11 12:20:19;;;;;;;16.90;7.22;;;23.80;95.90;;;;;;5107451;28;20066;-92
2021/01/11 12:22:45;;;;;;;12.93;5.22;;;23.80;96.10;;;;;;5108721;28;20046;-94
2021/01/11 12:25:20;;;;;;;8.32;3.60;;;23.80;96.20;;;;;;5107752;28;20046;-93
2021/01/11 12:27:47;;;;;;;4.97;2.55;;;23.80;96.10;;;;;;5107969;28;20290;-94
2021/01/11 12:30:14;;;;;;;8.02;3.13;;;23.80;96.00;;;;;;5107699;28;20032;-94
2021/01/11 12:32:46;;;;;;;4.03;2.25;;;23.80;96.20;;;;;;5108114;28;20046;-94
2021/01/11 12:35:14;;;;;;;6.68;2.53;;;23.90;95.90;;;;;;5112943;28;20302;-91
2021/01/11 12:37:40;;;;;;;4.85;2.50;;;23.90;95.90;;;;;;5115408;28;20090;-93
2021/01/11 12:40:07;;;;;;;6.63;2.45;;;24.00;96.00;;;;;;5112459;28;20076;-93
2021/01/11 12:42:36;;;;;;;4.80;2.78;;;24.00;95.80;;;;;;5108151;28;20055;-94
2021/01/11 12:45:03;;;;;;;4.63;2.45;;;24.10;95.40;;;;;;5093568;28;20106;-93
2021/01/11 12:47:39;;;;;;;3.75;2.10;;;24.10;95.50;;;;;;5109044;28;20043;-95
2021/01/11 12:50:07;;;;;;;3.13;2.03;;;24.00;95.50;;;;;;5108869;28;20024;-94
2021/01/11 12:52:34;;;;;;;10.30;4.80;;;24.00;95.50;;;;;;5109544;28;20038;-93
2021/01/11 12:55:03;;;;;;;8.63;3.40;;;24.00;95.40;;;;;;5094352;28;20032;-93
2021/01/11 12:57:38;;;;;;;10.25;3.25;;;24.00;95.20;;;;;;5116004;28;20024;-93
2021/01/11 13:00:05;;;;;;;4.60;2.20;;;24.00;95.40;;;;;;5114978;28;20034;-92
2021/01/11 13:02:35;;;;;;;8.10;2.75;;;24.00;95.30;;;;;;5110678;28;20034;-91
2021/01/11 13:05:03;;;;;;;2.38;1.65;;;24.10;95.70;;;;;;5111343;28;20032;-92
2021/01/11 13:07:37;;;;;;;5.75;2.13;;;24.10;95.50;;;;;;5115339;28;20035;-93
2021/01/11 13:10:08;;;;;;;3.28;1.77;;;24.10;95.50;;;;;;5113299;28;20032;-92
2021/01/11 13:12:34;;;;;;;4.35;2.10;;;24.20;95.70;;;;;;5095616;28;20050;-94
2021/01/11 13:15:03;;;;;;;8.10;2.30;;;24.30;95.80;;;;;;5113301;28;20080;-96
2021/01/11 13:17:43;;;;;;;4.50;2.35;;;24.30;95.60;;;;;;5099066;28;20030;-94
2021/01/11 13:20:26;;;;;;;3.42;2.33;;;24.20;95.70;;;;;;5135077;28;20061;-95
2021/01/11 13:23:15;;;;;;;5.18;3.15;;;24.30;95.60;;;;;;5113446;28;20078;-94
2021/01/11 13:26:24;;;;;;;4.18;2.47;;;24.30;95.90;;;;;;5097116;28;20044;-96
2021/01/11 13:28:52;;;;;;;1.98;1.60;;;24.30;96.30;;;;;;5112870;28;20065;-92
2021/01/11 13:32:37;;;;;;;5.25;1.98;;;24.20;96.30;;;;;;5113834;28;20031;-93
2021/01/11 13:34:46;;;;;;;7.80;2.33;;;24.20;96.30;;;;;;5091546;28;20024;-93
2021/01/11 13:37:22;;;;;;;3.95;2.00;;;24.40;96.10;;;;;;5113743;28;20050;-94
2021/01/11 13:40:26;;;;;;;3.17;2.20;;;24.40;96.20;;;;;;5110985;28;20058;-93
2021/01/11 13:43:03;;;;;;;5.70;2.33;;;24.30;96.40;;;;;;5111423;28;20107;-92
2021/01/11 13:45:34;;;;;;;5.00;3.00;;;24.40;96.40;;;;;;5108445;28;20103;-92
2021/01/11 13:48:01;;;;;;;4.10;2.75;;;24.50;96.40;;;;;;5109066;28;20115;-92
2021/01/11 13:50:28;;;;;;;3.17;2.50;;;24.50;96.60;;;;;;5109040;28;20043;-93
2021/01/11 13:52:58;;;;;;;3.90;1.88;;;24.50;96.60;;;;;;5108827;28;20028;-91
2021/01/11 13:55:25;;;;;;;2.38;1.40;;;24.50;96.10;;;;;;5110547;28;20040;-94
2021/01/11 13:57:52;;;;;;;3.80;1.75;;;24.50;96.20;;;;;;5109683;28;20074;-92
2021/01/11 14:00:35;;;;;;;2.42;1.60;;;24.40;96.20;;;;;;5110743;28;20028;-93
2021/01/11 14:03:20;;;;;;;3.53;2.08;;;24.40;96.30;;;;;;5079523;28;20036;-91
2021/01/11 14:05:49;;;;;;;2.83;1.58;;;24.50;96.60;;;;;;5112453;28;20032;-93
2021/01/11 14:08:16;;;;;;;2.50;1.20;;;24.60;96.70;;;;;;5110830;28;20032;-92